sensor_id;sensor_type;location;lat;lon;timestamp;temperature;humidity
63648;DHT22;49792;48.744;9.176;2022-09-19T00:01:37;17.60;65.10
63648;DHT22;49792;48.744;9.176;2022-09-19T00:04:04;17.60;65.20
63648;DHT22;49792;48.744;9.176;2022-09-19T00:06:30;17.60;65.40
63648;DHT22;49792;48.744;9.176;2022-09-19T00:08:56;17.50;65.40
63648;DHT22;49792;48.744;9.176;2022-09-19T00:11:22;17.50;65.90
63648;DHT22;49792;48.744;9.176;2022-09-19T00:13:49;17.60;65.50
63648;DHT22;49792;48.744;9.176;2022-09-19T00:16:22;17.50;65.40
63648;DHT22;49792;48.744;9.176;2022-09-19T00:18:48;17.50;65.70
63648;DHT22;49792;48.744;9.176;2022-09-19T00:21:24;17.50;66.20
63648;DHT22;49792;48.744;9.176;2022-09-19T00:23:50;17.50;65.60
63648;DHT22;49792;48.744;9.176;2022-09-19T00:26:34;17.50;65.70
63648;DHT22;49792;48.744;9.176;2022-09-19T00:29:01;17.50;65.90
63648;DHT22;49792;48.744;9.176;2022-09-19T00:31:26;17.60;66.00
63648;DHT22;49792;48.744;9.176;2022-09-19T00:33:53;17.60;65.00
63648;DHT22;49792;48.744;9.176;2022-09-19T00:36:19;17.60;65.20
63648;DHT22;49792;48.744;9.176;2022-09-19T00:38:44;17.70;65.00
63648;DHT22;49792;48.744;9.176;2022-09-19T00:41:17;17.60;65.00
63648;DHT22;49792;48.744;9.176;2022-09-19T00:46:12;17.50;64.90
63648;DHT22;49792;48.744;9.176;2022-09-19T00:48:37;17.50;65.80
63648;DHT22;49792;48.744;9.176;2022-09-19T00:51:08;17.50;66.10
63648;DHT22;49792;48.744;9.176;2022-09-19T00:53:34;17.50;65.50
63648;DHT22;49792;48.744;9.176;2022-09-19T00:56:02;17.50;65.50
63648;DHT22;49792;48.744;9.176;2022-09-19T00:58:30;17.50;64.80
63648;DHT22;49792;48.744;9.176;2022-09-19T01:00:56;17.50;64.90
63648;DHT22;49792;48.744;9.176;2022-09-19T01:03:22;17.50;64.70
63648;DHT22;49792;48.744;9.176;2022-09-19T01:08:39;17.50;64.60
63648;DHT22;49792;48.744;9.176;2022-09-19T01:11:29;17.50;64.80
63648;DHT22;49792;48.744;9.176;2022-09-19T01:16:48;17.50;65.40
63648;DHT22;49792;48.744;9.176;2022-09-19T01:24:58;17.50;65.10
63648;DHT22;49792;48.744;9.176;2022-09-19T01:30:12;17.50;65.30
63648;DHT22;49792;48.744;9.176;2022-09-19T01:32:40;17.50;65.50
63648;DHT22;49792;48.744;9.176;2022-09-19T01:35:08;17.40;65.60
63648;DHT22;49792;48.744;9.176;2022-09-19T01:37:52;17.40;65.40
63648;DHT22;49792;48.744;9.176;2022-09-19T01:40:18;17.50;65.40
63648;DHT22;49792;48.744;9.176;2022-09-19T01:42:52;17.40;65.10
63648;DHT22;49792;48.744;9.176;2022-09-19T01:45:30;17.40;65.30
63648;DHT22;49792;48.744;9.176;2022-09-19T01:48:19;17.50;65.20
63648;DHT22;49792;48.744;9.176;2022-09-19T01:56:23;17.50;65.10
63648;DHT22;49792;48.744;9.176;2022-09-19T02:01:46;17.50;65.40
63648;DHT22;49792;48.744;9.176;2022-09-19T02:04:09;17.40;66.20
63648;DHT22;49792;48.744;9.176;2022-09-19T02:06:52;17.40;65.90
63648;DHT22;49792;48.744;9.176;2022-09-19T02:09:30;17.40;66.00
63648;DHT22;49792;48.744;9.176;2022-09-19T02:11:59;17.40;65.40
63648;DHT22;49792;48.744;9.176;2022-09-19T02:14:27;17.30;66.10
63648;DHT22;49792;48.744;9.176;2022-09-19T02:19:30;17.40;66.10
63648;DHT22;49792;48.744;9.176;2022-09-19T02:21:59;17.40;66.40
63648;DHT22;49792;48.744;9.176;2022-09-19T02:24:27;17.40;66.10
63648;DHT22;49792;48.744;9.176;2022-09-19T02:26:58;17.40;65.60
63648;DHT22;49792;48.744;9.176;2022-09-19T02:29:27;17.50;65.90
63648;DHT22;49792;48.744;9.176;2022-09-19T02:31:56;17.40;65.50
63648;DHT22;49792;48.744;9.176;2022-09-19T02:34:21;17.40;66.60
63648;DHT22;49792;48.744;9.176;2022-09-19T02:36:50;17.40;66.30
63648;DHT22;49792;48.744;9.176;2022-09-19T02:39:22;17.40;66.20
63648;DHT22;49792;48.744;9.176;2022-09-19T02:42:02;17.30;65.80
63648;DHT22;49792;48.744;9.176;2022-09-19T02:44:33;17.40;66.20
63648;DHT22;49792;48.744;9.176;2022-09-19T02:47:12;17.40;65.80
63648;DHT22;49792;48.744;9.176;2022-09-19T02:49:47;17.30;65.60
63648;DHT22;49792;48.744;9.176;2022-09-19T02:52:15;17.30;65.30
63648;DHT22;49792;48.744;9.176;2022-09-19T02:54:47;17.30;65.80
63648;DHT22;49792;48.744;9.176;2022-09-19T02:57:14;17.30;65.80
63648;DHT22;49792;48.744;9.176;2022-09-19T02:59:42;17.30;65.40
63648;DHT22;49792;48.744;9.176;2022-09-19T03:04:44;17.30;65.10
63648;DHT22;49792;48.744;9.176;2022-09-19T03:07:20;17.30;65.10
63648;DHT22;49792;48.744;9.176;2022-09-19T03:09:51;17.40;65.30
63648;DHT22;49792;48.744;9.176;2022-09-19T03:14:46;17.40;65.30
63648;DHT22;49792;48.744;9.176;2022-09-19T03:17:13;17.40;65.20
63648;DHT22;49792;48.744;9.176;2022-09-19T03:19:47;17.40;65.00
63648;DHT22;49792;48.744;9.176;2022-09-19T03:22:13;17.30;64.90
63648;DHT22;49792;48.744;9.176;2022-09-19T03:24:38;17.40;65.10
63648;DHT22;49792;48.744;9.176;2022-09-19T03:27:04;17.40;65.00
63648;DHT22;49792;48.744;9.176;2022-09-19T03:29:30;17.40;65.10
63648;DHT22;49792;48.744;9.176;2022-09-19T03:31:55;17.40;65.20
63648;DHT22;49792;48.744;9.176;2022-09-19T03:34:21;17.30;65.10
63648;DHT22;49792;48.744;9.176;2022-09-19T03:36:46;17.30;65.10
63648;DHT22;49792;48.744;9.176;2022-09-19T03:39:13;17.40;65.00
63648;DHT22;49792;48.744;9.176;2022-09-19T03:41:38;17.40;65.40
63648;DHT22;49792;48.744;9.176;2022-09-19T03:44:04;17.30;65.30
63648;DHT22;49792;48.744;9.176;2022-09-19T03:46:30;17.30;65.20
63648;DHT22;49792;48.744;9.176;2022-09-19T03:48:56;17.30;65.60
63648;DHT22;49792;48.744;9.176;2022-09-19T03:51:21;17.30;65.60
63648;DHT22;49792;48.744;9.176;2022-09-19T03:53:47;17.30;65.50
63648;DHT22;49792;48.744;9.176;2022-09-19T03:56:13;17.30;65.20
63648;DHT22;49792;48.744;9.176;2022-09-19T03:58:39;17.30;65.60
63648;DHT22;49792;48.744;9.176;2022-09-19T04:01:04;17.30;65.20
63648;DHT22;49792;48.744;9.176;2022-09-19T04:03:32;17.30;65.40
63648;DHT22;49792;48.744;9.176;2022-09-19T04:05:59;17.30;64.60
63648;DHT22;49792;48.744;9.176;2022-09-19T04:08:25;17.20;65.20
63648;DHT22;49792;48.744;9.176;2022-09-19T04:10:50;17.30;65.50
63648;DHT22;49792;48.744;9.176;2022-09-19T04:13:16;17.40;65.60
63648;DHT22;49792;48.744;9.176;2022-09-19T04:15:42;17.30;65.10
63648;DHT22;49792;48.744;9.176;2022-09-19T04:18:07;17.30;65.10
63648;DHT22;49792;48.744;9.176;2022-09-19T04:20:33;17.30;65.50
63648;DHT22;49792;48.744;9.176;2022-09-19T04:22:59;17.30;65.40
63648;DHT22;49792;48.744;9.176;2022-09-19T04:25:29;17.20;65.50
63648;DHT22;49792;48.744;9.176;2022-09-19T04:28:02;17.30;65.40
63648;DHT22;49792;48.744;9.176;2022-09-19T04:30:32;17.30;65.70
63648;DHT22;49792;48.744;9.176;2022-09-19T04:32:58;17.30;65.70
63648;DHT22;49792;48.744;9.176;2022-09-19T04:35:24;17.30;65.20
63648;DHT22;49792;48.744;9.176;2022-09-19T04:37:49;17.30;65.00
63648;DHT22;49792;48.744;9.176;2022-09-19T04:40:15;17.30;65.20
63648;DHT22;49792;48.744;9.176;2022-09-19T04:42:40;17.30;65.40
63648;DHT22;49792;48.744;9.176;2022-09-19T04:45:07;17.30;65.10
63648;DHT22;49792;48.744;9.176;2022-09-19T04:47:33;17.30;65.00
63648;DHT22;49792;48.744;9.176;2022-09-19T04:50:00;17.30;65.80
63648;DHT22;49792;48.744;9.176;2022-09-19T04:52:26;17.30;66.20
63648;DHT22;49792;48.744;9.176;2022-09-19T04:54:51;17.30;65.00
63648;DHT22;49792;48.744;9.176;2022-09-19T04:57:19;17.20;65.50
63648;DHT22;49792;48.744;9.176;2022-09-19T04:59:45;17.30;65.80
63648;DHT22;49792;48.744;9.176;2022-09-19T05:02:11;17.30;64.30
63648;DHT22;49792;48.744;9.176;2022-09-19T05:04:36;17.30;64.30
63648;DHT22;49792;48.744;9.176;2022-09-19T05:07:03;17.30;64.80
63648;DHT22;49792;48.744;9.176;2022-09-19T05:09:29;17.30;65.00
63648;DHT22;49792;48.744;9.176;2022-09-19T05:11:54;17.30;65.30
63648;DHT22;49792;48.744;9.176;2022-09-19T05:14:21;17.30;65.40
63648;DHT22;49792;48.744;9.176;2022-09-19T05:16:47;17.30;65.20
63648;DHT22;49792;48.744;9.176;2022-09-19T05:19:15;17.30;65.40
63648;DHT22;49792;48.744;9.176;2022-09-19T05:21:41;17.30;65.30
63648;DHT22;49792;48.744;9.176;2022-09-19T05:24:08;17.30;63.00
63648;DHT22;49792;48.744;9.176;2022-09-19T05:26:34;17.20;63.10
63648;DHT22;49792;48.744;9.176;2022-09-19T05:29:00;17.10;64.00
63648;DHT22;49792;48.744;9.176;2022-09-19T05:31:25;17.20;65.30
63648;DHT22;49792;48.744;9.176;2022-09-19T05:33:51;17.30;64.10
63648;DHT22;49792;48.744;9.176;2022-09-19T05:36:16;17.20;64.40
63648;DHT22;49792;48.744;9.176;2022-09-19T05:38:42;17.30;63.80
63648;DHT22;49792;48.744;9.176;2022-09-19T05:41:09;17.30;63.00
63648;DHT22;49792;48.744;9.176;2022-09-19T05:43:35;17.20;63.70
63648;DHT22;49792;48.744;9.176;2022-09-19T05:46:00;17.20;64.70
63648;DHT22;49792;48.744;9.176;2022-09-19T05:48:26;17.20;64.60
63648;DHT22;49792;48.744;9.176;2022-09-19T05:50:53;17.20;64.40
63648;DHT22;49792;48.744;9.176;2022-09-19T05:53:19;17.20;64.10
63648;DHT22;49792;48.744;9.176;2022-09-19T05:56:03;17.20;63.70
63648;DHT22;49792;48.744;9.176;2022-09-19T05:58:30;17.20;64.10
63648;DHT22;49792;48.744;9.176;2022-09-19T06:00:56;17.30;63.80
63648;DHT22;49792;48.744;9.176;2022-09-19T06:03:21;17.30;63.70
63648;DHT22;49792;48.744;9.176;2022-09-19T06:05:48;17.30;63.50
63648;DHT22;49792;48.744;9.176;2022-09-19T06:08:14;17.30;63.60
63648;DHT22;49792;48.744;9.176;2022-09-19T06:10:41;17.40;63.70
63648;DHT22;49792;48.744;9.176;2022-09-19T06:13:10;17.40;63.90
63648;DHT22;49792;48.744;9.176;2022-09-19T06:15:36;17.40;63.90
63648;DHT22;49792;48.744;9.176;2022-09-19T06:18:01;17.30;63.40
63648;DHT22;49792;48.744;9.176;2022-09-19T06:20:26;17.30;63.80
63648;DHT22;49792;48.744;9.176;2022-09-19T06:22:59;17.30;64.20
63648;DHT22;49792;48.744;9.176;2022-09-19T06:25:30;17.20;64.00
63648;DHT22;49792;48.744;9.176;2022-09-19T06:27:57;17.20;63.80
63648;DHT22;49792;48.744;9.176;2022-09-19T06:30:23;17.30;64.20
63648;DHT22;49792;48.744;9.176;2022-09-19T06:32:49;17.20;63.90
63648;DHT22;49792;48.744;9.176;2022-09-19T06:35:16;17.30;64.10
63648;DHT22;49792;48.744;9.176;2022-09-19T06:37:42;17.10;63.70
63648;DHT22;49792;48.744;9.176;2022-09-19T06:40:07;17.20;63.70
63648;DHT22;49792;48.744;9.176;2022-09-19T06:42:33;17.20;63.70
63648;DHT22;49792;48.744;9.176;2022-09-19T06:44:59;17.20;63.60
63648;DHT22;49792;48.744;9.176;2022-09-19T06:47:24;17.30;63.60
63648;DHT22;49792;48.744;9.176;2022-09-19T06:49:50;17.20;63.50
63648;DHT22;49792;48.744;9.176;2022-09-19T06:52:15;17.20;63.40
63648;DHT22;49792;48.744;9.176;2022-09-19T06:54:41;17.20;63.40
63648;DHT22;49792;48.744;9.176;2022-09-19T06:57:07;17.20;63.30
63648;DHT22;49792;48.744;9.176;2022-09-19T06:59:32;17.20;63.20
63648;DHT22;49792;48.744;9.176;2022-09-19T07:01:58;17.30;63.30
63648;DHT22;49792;48.744;9.176;2022-09-19T07:04:23;17.10;63.10
63648;DHT22;49792;48.744;9.176;2022-09-19T07:06:48;17.20;63.00
63648;DHT22;49792;48.744;9.176;2022-09-19T07:09:14;17.20;63.10
63648;DHT22;49792;48.744;9.176;2022-09-19T07:11:39;17.20;63.00
63648;DHT22;49792;48.744;9.176;2022-09-19T07:14:05;17.10;63.00
63648;DHT22;49792;48.744;9.176;2022-09-19T07:16:31;17.10;63.00
63648;DHT22;49792;48.744;9.176;2022-09-19T07:18:57;17.10;62.90
63648;DHT22;49792;48.744;9.176;2022-09-19T07:21:22;17.20;62.90
63648;DHT22;49792;48.744;9.176;2022-09-19T07:23:48;17.10;62.70
63648;DHT22;49792;48.744;9.176;2022-09-19T07:26:14;17.10;62.80
63648;DHT22;49792;48.744;9.176;2022-09-19T07:28:39;17.20;62.80
63648;DHT22;49792;48.744;9.176;2022-09-19T07:31:05;17.20;62.80
63648;DHT22;49792;48.744;9.176;2022-09-19T07:33:31;17.20;62.80
63648;DHT22;49792;48.744;9.176;2022-09-19T07:35:57;17.10;62.70
63648;DHT22;49792;48.744;9.176;2022-09-19T07:38:23;17.10;62.70
63648;DHT22;49792;48.744;9.176;2022-09-19T07:40:49;17.20;62.80
63648;DHT22;49792;48.744;9.176;2022-09-19T07:43:15;17.10;62.60
63648;DHT22;49792;48.744;9.176;2022-09-19T07:45:42;17.10;62.60
63648;DHT22;49792;48.744;9.176;2022-09-19T07:48:08;17.20;62.70
63648;DHT22;49792;48.744;9.176;2022-09-19T07:50:34;17.10;63.40
63648;DHT22;49792;48.744;9.176;2022-09-19T07:53:01;17.10;62.60
63648;DHT22;49792;48.744;9.176;2022-09-19T07:55:27;17.10;62.60
63648;DHT22;49792;48.744;9.176;2022-09-19T07:57:54;17.10;62.60
63648;DHT22;49792;48.744;9.176;2022-09-19T08:00:21;17.10;62.50
63648;DHT22;49792;48.744;9.176;2022-09-19T08:02:55;17.10;62.50
63648;DHT22;49792;48.744;9.176;2022-09-19T08:05:20;17.10;62.50
63648;DHT22;49792;48.744;9.176;2022-09-19T08:07:46;17.10;62.60
63648;DHT22;49792;48.744;9.176;2022-09-19T08:10:11;17.10;62.50
63648;DHT22;49792;48.744;9.176;2022-09-19T08:12:37;17.10;62.40
63648;DHT22;49792;48.744;9.176;2022-09-19T08:15:02;17.10;62.50
63648;DHT22;49792;48.744;9.176;2022-09-19T08:17:28;17.10;62.40
63648;DHT22;49792;48.744;9.176;2022-09-19T08:19:54;17.10;62.40
63648;DHT22;49792;48.744;9.176;2022-09-19T08:22:20;17.10;62.40
63648;DHT22;49792;48.744;9.176;2022-09-19T08:24:46;17.10;62.40
63648;DHT22;49792;48.744;9.176;2022-09-19T08:27:11;17.10;62.40
63648;DHT22;49792;48.744;9.176;2022-09-19T08:29:37;17.10;62.50
63648;DHT22;49792;48.744;9.176;2022-09-19T08:32:04;17.10;62.40
63648;DHT22;49792;48.744;9.176;2022-09-19T08:34:29;17.10;62.40
63648;DHT22;49792;48.744;9.176;2022-09-19T08:36:55;17.10;62.40
63648;DHT22;49792;48.744;9.176;2022-09-19T08:39:24;17.00;62.30
63648;DHT22;49792;48.744;9.176;2022-09-19T08:46:49;17.10;62.30
63648;DHT22;49792;48.744;9.176;2022-09-19T08:49:27;17.10;62.30
63648;DHT22;49792;48.744;9.176;2022-09-19T08:51:57;17.10;62.20
63648;DHT22;49792;48.744;9.176;2022-09-19T08:56:50;17.20;62.30
63648;DHT22;49792;48.744;9.176;2022-09-19T08:59:17;17.10;62.20
63648;DHT22;49792;48.744;9.176;2022-09-19T09:01:45;17.10;62.20
63648;DHT22;49792;48.744;9.176;2022-09-19T09:07:05;17.10;62.20
63648;DHT22;49792;48.744;9.176;2022-09-19T09:09:37;17.10;62.20
63648;DHT22;49792;48.744;9.176;2022-09-19T09:12:15;17.10;62.20
63648;DHT22;49792;48.744;9.176;2022-09-19T09:17:30;17.10;62.20
63648;DHT22;49792;48.744;9.176;2022-09-19T09:20:13;17.10;62.10
63648;DHT22;49792;48.744;9.176;2022-09-19T09:22:51;17.10;62.10
63648;DHT22;49792;48.744;9.176;2022-09-19T09:25:22;17.10;62.20
63648;DHT22;49792;48.744;9.176;2022-09-19T09:30:28;17.10;62.20
63648;DHT22;49792;48.744;9.176;2022-09-19T09:32:55;17.10;62.10
63648;DHT22;49792;48.744;9.176;2022-09-19T09:35:30;17.10;62.20
63648;DHT22;49792;48.744;9.176;2022-09-19T09:38:02;17.10;62.20
63648;DHT22;49792;48.744;9.176;2022-09-19T09:43:56;17.00;62.00
63648;DHT22;49792;48.744;9.176;2022-09-19T09:49:23;17.10;62.10
63648;DHT22;49792;48.744;9.176;2022-09-19T10:00:00;17.00;62.00
63648;DHT22;49792;48.744;9.176;2022-09-19T10:05:49;17.00;62.00
63648;DHT22;49792;48.744;9.176;2022-09-19T10:08:19;17.00;61.90
63648;DHT22;49792;48.744;9.176;2022-09-19T10:10:46;17.00;62.00
63648;DHT22;49792;48.744;9.176;2022-09-19T10:15:40;17.10;62.00
63648;DHT22;49792;48.744;9.176;2022-09-19T10:18:07;17.10;62.00
63648;DHT22;49792;48.744;9.176;2022-09-19T10:20:45;17.00;61.90
63648;DHT22;49792;48.744;9.176;2022-09-19T10:23:14;17.10;62.00
63648;DHT22;49792;48.744;9.176;2022-09-19T10:25:43;17.00;61.90
63648;DHT22;49792;48.744;9.176;2022-09-19T10:28:16;17.00;61.90
63648;DHT22;49792;48.744;9.176;2022-09-19T10:30:49;17.10;61.90
63648;DHT22;49792;48.744;9.176;2022-09-19T10:33:23;17.10;61.90
63648;DHT22;49792;48.744;9.176;2022-09-19T10:35:51;17.10;61.90
63648;DHT22;49792;48.744;9.176;2022-09-19T10:38:20;17.10;61.90
63648;DHT22;49792;48.744;9.176;2022-09-19T10:40:53;17.10;61.90
63648;DHT22;49792;48.744;9.176;2022-09-19T10:43:22;17.10;61.90
63648;DHT22;49792;48.744;9.176;2022-09-19T10:45:49;17.10;61.90
63648;DHT22;49792;48.744;9.176;2022-09-19T10:48:15;17.10;61.90
63648;DHT22;49792;48.744;9.176;2022-09-19T10:50:44;17.10;61.90
63648;DHT22;49792;48.744;9.176;2022-09-19T10:53:15;17.00;61.80
63648;DHT22;49792;48.744;9.176;2022-09-19T10:55:42;17.20;61.90
63648;DHT22;49792;48.744;9.176;2022-09-19T10:58:16;17.10;61.90
63648;DHT22;49792;48.744;9.176;2022-09-19T11:00:45;17.10;61.80
63648;DHT22;49792;48.744;9.176;2022-09-19T11:03:17;17.10;61.70
63648;DHT22;49792;48.744;9.176;2022-09-19T11:05:43;17.00;61.80
63648;DHT22;49792;48.744;9.176;2022-09-19T11:08:22;17.10;61.90
63648;DHT22;49792;48.744;9.176;2022-09-19T11:10:48;17.10;61.80
63648;DHT22;49792;48.744;9.176;2022-09-19T11:13:17;17.10;61.70
63648;DHT22;49792;48.744;9.176;2022-09-19T11:26:20;17.00;61.80
63648;DHT22;49792;48.744;9.176;2022-09-19T11:28:58;17.00;61.80
63648;DHT22;49792;48.744;9.176;2022-09-19T11:31:41;17.00;61.90
63648;DHT22;49792;48.744;9.176;2022-09-19T11:36:51;17.00;62.20
63648;DHT22;49792;48.744;9.176;2022-09-19T11:42:05;17.00;62.00
63648;DHT22;49792;48.744;9.176;2022-09-19T11:49:53;17.00;62.30
63648;DHT22;49792;48.744;9.176;2022-09-19T11:57:56;17.00;62.30
63648;DHT22;49792;48.744;9.176;2022-09-19T12:00:26;17.00;62.30
63648;DHT22;49792;48.744;9.176;2022-09-19T12:11:10;17.00;62.10
63648;DHT22;49792;48.744;9.176;2022-09-19T12:13:50;17.00;62.30
63648;DHT22;49792;48.744;9.176;2022-09-19T12:18:58;17.10;62.20
63648;DHT22;49792;48.744;9.176;2022-09-19T12:21:25;17.00;62.30
63648;DHT22;49792;48.744;9.176;2022-09-19T12:23:58;17.00;62.20
63648;DHT22;49792;48.744;9.176;2022-09-19T12:26:56;17.00;62.30
63648;DHT22;49792;48.744;9.176;2022-09-19T12:29:24;17.00;62.40
63648;DHT22;49792;48.744;9.176;2022-09-19T12:31:52;17.00;62.30
63648;DHT22;49792;48.744;9.176;2022-09-19T12:36:55;16.90;62.30
63648;DHT22;49792;48.744;9.176;2022-09-19T12:39:27;16.90;62.30
63648;DHT22;49792;48.744;9.176;2022-09-19T12:41:57;17.00;62.30
63648;DHT22;49792;48.744;9.176;2022-09-19T12:44:28;17.00;62.30
63648;DHT22;49792;48.744;9.176;2022-09-19T12:54:37;17.00;62.20
63648;DHT22;49792;48.744;9.176;2022-09-19T12:57:07;17.00;62.40
63648;DHT22;49792;48.744;9.176;2022-09-19T12:59:33;17.00;62.50
63648;DHT22;49792;48.744;9.176;2022-09-19T13:02:13;17.10;62.60
63648;DHT22;49792;48.744;9.176;2022-09-19T13:09:56;17.00;62.50
63648;DHT22;49792;48.744;9.176;2022-09-19T13:14:54;17.00;62.50
63648;DHT22;49792;48.744;9.176;2022-09-19T13:17:21;17.00;62.50
63648;DHT22;49792;48.744;9.176;2022-09-19T13:20:06;17.00;62.50
63648;DHT22;49792;48.744;9.176;2022-09-19T13:22:59;17.00;62.40
63648;DHT22;49792;48.744;9.176;2022-09-19T13:25:45;17.00;62.50
63648;DHT22;49792;48.744;9.176;2022-09-19T13:30:49;17.00;62.40
63648;DHT22;49792;48.744;9.176;2022-09-19T13:38:54;16.90;62.40
63648;DHT22;49792;48.744;9.176;2022-09-19T13:41:33;17.00;62.40
63648;DHT22;49792;48.744;9.176;2022-09-19T13:49:18;16.90;62.20
63648;DHT22;49792;48.744;9.176;2022-09-19T13:51:56;16.90;62.30
63648;DHT22;49792;48.744;9.176;2022-09-19T13:59:28;17.00;62.30
63648;DHT22;49792;48.744;9.176;2022-09-19T14:02:01;16.90;62.20
63648;DHT22;49792;48.744;9.176;2022-09-19T14:04:38;16.90;62.20
63648;DHT22;49792;48.744;9.176;2022-09-19T14:07:43;17.00;62.30
63648;DHT22;49792;48.744;9.176;2022-09-19T14:18:00;16.90;61.80
63648;DHT22;49792;48.744;9.176;2022-09-19T14:20:45;17.00;61.90
63648;DHT22;49792;48.744;9.176;2022-09-19T14:23:14;16.90;62.00
63648;DHT22;49792;48.744;9.176;2022-09-19T14:25:41;16.90;62.00
63648;DHT22;49792;48.744;9.176;2022-09-19T14:28:23;17.00;62.10
63648;DHT22;49792;48.744;9.176;2022-09-19T14:36:01;16.90;62.10
63648;DHT22;49792;48.744;9.176;2022-09-19T14:41:07;16.90;62.10
63648;DHT22;49792;48.744;9.176;2022-09-19T14:46:20;16.90;62.00
63648;DHT22;49792;48.744;9.176;2022-09-19T14:53:54;17.00;62.20
63648;DHT22;49792;48.744;9.176;2022-09-19T14:56:24;17.00;62.00
63648;DHT22;49792;48.744;9.176;2022-09-19T14:58:50;17.00;62.20
63648;DHT22;49792;48.744;9.176;2022-09-19T15:01:17;16.90;62.40
63648;DHT22;49792;48.744;9.176;2022-09-19T15:03:45;16.90;62.40
63648;DHT22;49792;48.744;9.176;2022-09-19T15:06:15;17.00;62.30
63648;DHT22;49792;48.744;9.176;2022-09-19T15:08:46;17.00;62.40
63648;DHT22;49792;48.744;9.176;2022-09-19T15:11:12;17.00;62.50
63648;DHT22;49792;48.744;9.176;2022-09-19T15:13:44;17.00;62.50
63648;DHT22;49792;48.744;9.176;2022-09-19T15:16:09;17.00;62.50
63648;DHT22;49792;48.744;9.176;2022-09-19T15:18:36;17.10;62.60
63648;DHT22;49792;48.744;9.176;2022-09-19T15:21:04;17.00;62.50
63648;DHT22;49792;48.744;9.176;2022-09-19T15:23:33;17.00;62.50
63648;DHT22;49792;48.744;9.176;2022-09-19T15:26:00;17.00;62.50
63648;DHT22;49792;48.744;9.176;2022-09-19T15:28:28;17.00;63.40
63648;DHT22;49792;48.744;9.176;2022-09-19T15:30:55;17.00;62.50
63648;DHT22;49792;48.744;9.176;2022-09-19T15:33:21;17.00;62.60
63648;DHT22;49792;48.744;9.176;2022-09-19T15:35:48;16.90;62.70
63648;DHT22;49792;48.744;9.176;2022-09-19T15:38:19;17.00;62.80
63648;DHT22;49792;48.744;9.176;2022-09-19T15:40:47;17.00;62.90
63648;DHT22;49792;48.744;9.176;2022-09-19T15:43:12;17.00;62.90
63648;DHT22;49792;48.744;9.176;2022-09-19T15:45:45;17.00;64.00
63648;DHT22;49792;48.744;9.176;2022-09-19T15:48:31;17.10;63.00
63648;DHT22;49792;48.744;9.176;2022-09-19T15:50:59;17.00;63.00
63648;DHT22;49792;48.744;9.176;2022-09-19T15:53:29;17.10;62.70
63648;DHT22;49792;48.744;9.176;2022-09-19T15:56:11;17.20;62.80
63648;DHT22;49792;48.744;9.176;2022-09-19T15:58:42;17.10;63.00
63648;DHT22;49792;48.744;9.176;2022-09-19T16:01:13;17.10;62.90
63648;DHT22;49792;48.744;9.176;2022-09-19T16:03:40;17.00;63.10
63648;DHT22;49792;48.744;9.176;2022-09-19T16:06:55;17.00;63.30
63648;DHT22;49792;48.744;9.176;2022-09-19T16:09:10;17.00;63.20
63648;DHT22;49792;48.744;9.176;2022-09-19T16:11:37;17.00;63.20
63648;DHT22;49792;48.744;9.176;2022-09-19T16:14:17;17.00;63.10
63648;DHT22;49792;48.744;9.176;2022-09-19T16:16:43;16.90;63.20
63648;DHT22;49792;48.744;9.176;2022-09-19T16:19:21;16.90;63.20
63648;DHT22;49792;48.744;9.176;2022-09-19T16:21:50;17.00;63.30
63648;DHT22;49792;48.744;9.176;2022-09-19T16:24:17;16.90;63.30
63648;DHT22;49792;48.744;9.176;2022-09-19T16:26:46;17.00;63.30
63648;DHT22;49792;48.744;9.176;2022-09-19T16:29:12;17.00;63.40
63648;DHT22;49792;48.744;9.176;2022-09-19T16:31:38;16.90;63.40
63648;DHT22;49792;48.744;9.176;2022-09-19T16:36:46;16.90;63.40
63648;DHT22;49792;48.744;9.176;2022-09-19T16:41:41;16.90;63.40
63648;DHT22;49792;48.744;9.176;2022-09-19T16:46:42;16.90;63.30
63648;DHT22;49792;48.744;9.176;2022-09-19T16:49:07;16.90;63.30
63648;DHT22;49792;48.744;9.176;2022-09-19T16:51:33;16.90;63.30
63648;DHT22;49792;48.744;9.176;2022-09-19T16:53:58;16.60;62.10
63648;DHT22;49792;48.744;9.176;2022-09-19T16:56:26;15.00;65.70
63648;DHT22;49792;48.744;9.176;2022-09-19T16:58:51;14.00;69.80
63648;DHT22;49792;48.744;9.176;2022-09-19T17:01:17;13.30;73.50
63648;DHT22;49792;48.744;9.176;2022-09-19T17:03:42;14.60;70.10
63648;DHT22;49792;48.744;9.176;2022-09-19T17:06:09;15.50;67.20
63648;DHT22;49792;48.744;9.176;2022-09-19T17:08:37;16.10;65.50
63648;DHT22;49792;48.744;9.176;2022-09-19T17:11:02;16.40;64.50
63648;DHT22;49792;48.744;9.176;2022-09-19T17:13:29;16.60;64.40
63648;DHT22;49792;48.744;9.176;2022-09-19T17:15:55;16.80;64.00
63648;DHT22;49792;48.744;9.176;2022-09-19T17:18:23;16.80;63.50
63648;DHT22;49792;48.744;9.176;2022-09-19T17:20:49;16.80;63.60
63648;DHT22;49792;48.744;9.176;2022-09-19T17:23:16;16.80;63.60
63648;DHT22;49792;48.744;9.176;2022-09-19T17:25:48;16.80;63.70
63648;DHT22;49792;48.744;9.176;2022-09-19T17:28:18;16.80;63.80
63648;DHT22;49792;48.744;9.176;2022-09-19T17:30:44;16.80;63.80
63648;DHT22;49792;48.744;9.176;2022-09-19T17:33:11;16.80;63.80
63648;DHT22;49792;48.744;9.176;2022-09-19T17:35:37;16.80;63.80
63648;DHT22;49792;48.744;9.176;2022-09-19T17:38:03;16.80;64.00
63648;DHT22;49792;48.744;9.176;2022-09-19T17:40:28;16.80;63.80
63648;DHT22;49792;48.744;9.176;2022-09-19T17:42:59;16.80;63.90
63648;DHT22;49792;48.744;9.176;2022-09-19T17:45:27;16.90;64.10
63648;DHT22;49792;48.744;9.176;2022-09-19T17:47:52;16.90;64.10
63648;DHT22;49792;48.744;9.176;2022-09-19T17:50:18;16.90;64.30
63648;DHT22;49792;48.744;9.176;2022-09-19T17:52:43;16.90;64.20
63648;DHT22;49792;48.744;9.176;2022-09-19T17:55:09;16.90;64.30
63648;DHT22;49792;48.744;9.176;2022-09-19T17:57:35;17.00;64.50
63648;DHT22;49792;48.744;9.176;2022-09-19T18:00:00;17.00;64.50
63648;DHT22;49792;48.744;9.176;2022-09-19T18:02:26;17.00;64.60
63648;DHT22;49792;48.744;9.176;2022-09-19T18:05:09;17.00;64.40
63648;DHT22;49792;48.744;9.176;2022-09-19T18:07:35;16.90;64.40
63648;DHT22;49792;48.744;9.176;2022-09-19T18:10:01;16.90;64.40
63648;DHT22;49792;48.744;9.176;2022-09-19T18:12:26;16.90;64.40
63648;DHT22;49792;48.744;9.176;2022-09-19T18:14:52;16.90;64.40
63648;DHT22;49792;48.744;9.176;2022-09-19T18:17:17;16.90;64.30
63648;DHT22;49792;48.744;9.176;2022-09-19T18:19:49;17.00;64.30
63648;DHT22;49792;48.744;9.176;2022-09-19T18:22:15;17.00;64.40
63648;DHT22;49792;48.744;9.176;2022-09-19T18:24:40;17.00;64.30
63648;DHT22;49792;48.744;9.176;2022-09-19T18:27:06;17.00;64.40
63648;DHT22;49792;48.744;9.176;2022-09-19T18:29:32;17.00;63.70
63648;DHT22;49792;48.744;9.176;2022-09-19T18:31:59;17.10;63.70
63648;DHT22;49792;48.744;9.176;2022-09-19T18:34:25;17.10;64.20